Ouranos — SVAG8 — position and weather

sailwx.info

Track history (hours):
 
Tides and Currents Weather Stations Pressure Air Temp Water Temp Dewpoint Dewpoint Depression Visibility Wind Speed Wind Dir Waves Ship Positions

Ouranos

Last reported at 2017-Dec-21 15:44 UTC. Time now 2018-Feb-17 21:49 UTC.
Position N 40°35' E 025°34'.
Warning: this ship's position is 58 days out of date.

Length 45 m.

Type: Pleasure craft. MMSI: 23700000.

Date/timePositionNaut miles runAvg speedWind from/ knotsBaromVisibWave heightAir tempDewpointWater temp
2017-Dec-21 15:44N 40°35' E 025°34'3 5.7
2017-Dec-21 15:16N 40°33' E 025°32'19 5.2
2017-Dec-21 11:31N 40°16' E 025°22'0 4.6
2017-Dec-21 11:30N 40°16' E 025°22'4 4.2
2017-Dec-21 10:34N 40°14' E 025°17'3 4.1
2017-Dec-21 09:48N 40°12' E 025°14'11 4.0
2017-Dec-21 07:02N 40°06' E 025°02'0 3.9
2017-Dec-21 06:55N 40°06' E 025°01'2 4.3
2017-Dec-21 06:26N 40°05' E 024°59'2 4.5
2017-Dec-21 05:53N 40°03' E 024°56'2 4.9
2017-Dec-21 05:22N 40°01' E 024°55'5 5.9
2017-Dec-21 04:28N 39°56' E 024°51'3 6.4
2017-Dec-21 03:58N 39°54' E 024°49'119 5.6
2017-Dec-20 06:53N 37°56' E 024°32'4 6.6
2017-Dec-20 06:20N 37°54' E 024°28'11 6.8
2017-Dec-20 04:38N 37°46' E 024°18'1 6.5
2017-Dec-20 04:30N 37°45' E 024°17'4 6.4
2017-Dec-20 03:57N 37°42' E 024°14'3 6.2
2017-Dec-20 03:30N 37°41' E 024°11'4 6.3
2017-Dec-20 02:54N 37°38' E 024°08'3 6.4
2017-Dec-20 02:29N 37°38' E 024°05'3 6.8
2017-Dec-20 02:00N 37°38' E 024°00'7 7.1
2017-Dec-20 01:04N 37°38' E 023°52'1 7.1
2017-Dec-20 00:56N 37°38' E 023°51'3 7.0
2017-Dec-20 00:31N 37°38' E 023°47'3 7.0
2017-Dec-20 00:00N 37°40' E 023°43'3 6.9
2017-Dec-19 23:31N 37°42' E 023°41'4 7.5
2017-Dec-19 23:01N 37°46' E 023°39'4 7.5
2017-Dec-19 22:31N 37°49' E 023°37'4 7.3
2017-Dec-19 22:01N 37°53' E 023°36'3 5.6
2017-Dec-19 21:31N 37°56' E 023°36'2 3.3
2017-Dec-19 21:01N 37°57' E 023°36'0 0.9
2017-Dec-19 20:30N 37°57' E 023°36'0 0.0
2017-Dec-19 20:01N 37°57' E 023°36'0 0.0
2017-Dec-19 19:30N 37°57' E 023°36'0 0.0
2017-Dec-19 19:00N 37°57' E 023°36'0 0.0
2017-Dec-19 18:30N 37°57' E 023°36'  
2017-Dec-14 13:57N 37°57' E 023°36'0 0.0
2017-Dec-14 13:30N 37°57' E 023°36'  
Track history (hours):
 
Tides and Currents Weather Stations Pressure Air Temp Water Temp Dewpoint Dewpoint Depression Visibility Wind Speed Wind Dir Waves Ship Positions

Ouranos

Last reported at 2017-Dec-21 15:44 UTC. Time now 2018-Feb-17 21:49 UTC.
Position N 40°35' E 025°34'.
Warning: this ship's position is 58 days out of date.

Length 45 m.

Type: Pleasure craft. MMSI: 23700000.

Date/timePositionNaut miles runAvg speedWind from/ knotsBaromVisibWave heightAir tempDewpointWater temp
2017-Dec-21 15:44N 40°35' E 025°34'3 5.7
2017-Dec-21 15:16N 40°33' E 025°32'19 5.2
2017-Dec-21 11:31N 40°16' E 025°22'0 4.6
2017-Dec-21 11:30N 40°16' E 025°22'4 4.2
2017-Dec-21 10:34N 40°14' E 025°17'3 4.1
2017-Dec-21 09:48N 40°12' E 025°14'11 4.0
2017-Dec-21 07:02N 40°06' E 025°02'0 3.9
2017-Dec-21 06:55N 40°06' E 025°01'2 4.3
2017-Dec-21 06:26N 40°05' E 024°59'2 4.5
2017-Dec-21 05:53N 40°03' E 024°56'2 4.9
2017-Dec-21 05:22N 40°01' E 024°55'5 5.9
2017-Dec-21 04:28N 39°56' E 024°51'3 6.4
2017-Dec-21 03:58N 39°54' E 024°49'119 5.6
2017-Dec-20 06:53N 37°56' E 024°32'4 6.6
2017-Dec-20 06:20N 37°54' E 024°28'11 6.8
2017-Dec-20 04:38N 37°46' E 024°18'1 6.5
2017-Dec-20 04:30N 37°45' E 024°17'4 6.4
2017-Dec-20 03:57N 37°42' E 024°14'3 6.2
2017-Dec-20 03:30N 37°41' E 024°11'4 6.3
2017-Dec-20 02:54N 37°38' E 024°08'3 6.4
2017-Dec-20 02:29N 37°38' E 024°05'3 6.8
2017-Dec-20 02:00N 37°38' E 024°00'7 7.1
2017-Dec-20 01:04N 37°38' E 023°52'1 7.1
2017-Dec-20 00:56N 37°38' E 023°51'3 7.0
2017-Dec-20 00:31N 37°38' E 023°47'3 7.0
2017-Dec-20 00:00N 37°40' E 023°43'3 6.9
2017-Dec-19 23:31N 37°42' E 023°41'4 7.5
2017-Dec-19 23:01N 37°46' E 023°39'4 7.5
2017-Dec-19 22:31N 37°49' E 023°37'4 7.3
2017-Dec-19 22:01N 37°53' E 023°36'3 5.6
2017-Dec-19 21:31N 37°56' E 023°36'2 3.3
2017-Dec-19 21:01N 37°57' E 023°36'0 0.9
2017-Dec-19 20:30N 37°57' E 023°36'0 0.0
2017-Dec-19 20:01N 37°57' E 023°36'0 0.0
2017-Dec-19 19:30N 37°57' E 023°36'0 0.0
2017-Dec-19 19:00N 37°57' E 023°36'0 0.0
2017-Dec-19 18:30N 37°57' E 023°36'  
2017-Dec-14 13:57N 37°57' E 023°36'0 0.0
2017-Dec-14 13:30N 37°57' E 023°36'  

Dump ship's entire track history